Time;durP1;ratioP1;P1;durP2;ratioP2;P2;SDS_P1;SDS_P2;PMS_P1;PMS_P2;Temp;Humidity;BMP_temperature;BMP_pressure;BME280_temperature;BME280_humidity;BME280_pressure;Samples;Min_cycle;Max_cycle;Signal;HPM_P1;HPM_P2
2022/11/20 00:02:25;;;;;;;6.45;4.82;;;;;;;;;;4929968;29;20557;-61
2022/11/20 00:04:52;;;;;;;7.15;4.95;;;;;;;;;;4930317;29;20041;-60
2022/11/20 00:07:18;;;;;;;6.35;5.00;;;;;;;;;;4915109;29;20044;-61
2022/11/20 00:09:45;;;;;;;5.63;4.60;;;;;;;;;;4915881;29;20165;-61
2022/11/20 00:12:11;;;;;;;5.60;4.93;;;;;;;;;;4919215;29;20051;-59
2022/11/20 00:14:38;;;;;;;5.55;4.57;;;;;;;;;;4919240;29;20051;-60
2022/11/20 00:17:04;;;;;;;5.78;4.70;;;;;;;;;;4919535;29;20054;-60
2022/11/20 00:19:31;;;;;;;6.60;4.85;;;;;;;;;;4918697;29;20044;-60
2022/11/20 00:21:57;;;;;;;4.90;4.40;;;;;;;;;;4918950;29;20051;-60
2022/11/20 00:24:23;;;;;;;5.65;4.55;;;;;;;;;;4933604;29;20048;-59
2022/11/20 00:26:50;;;;;;;6.68;4.65;;;;;;;;;;4918889;29;20051;-60
2022/11/20 00:29:16;;;;;;;7.53;4.38;;;;;;;;;;4918193;29;20048;-60
2022/11/20 00:31:43;;;;;;;4.88;4.28;;;;;;;;;;4918610;29;20052;-60
2022/11/20 00:34:09;;;;;;;5.32;4.60;;;;;;;;;;4918595;29;20123;-61
2022/11/20 00:36:36;;;;;;;7.75;5.28;;;;;;;;;;4918796;29;20185;-60
2022/11/20 00:39:02;;;;;;;5.68;4.78;;;;;;;;;;4932819;29;20066;-60
2022/11/20 00:41:29;;;;;;;5.30;4.60;;;;;;;;;;4933115;29;20055;-60
2022/11/20 00:43:56;;;;;;;6.78;4.43;;;;;;;;;;4917267;29;20044;-61
2022/11/20 00:46:24;;;;;;;5.18;4.38;;;;;;;;;;4918944;29;20040;-61
2022/11/20 00:48:51;;;;;;;6.00;4.47;;;;;;;;;;4917794;29;20451;-61
2022/11/20 00:51:18;;;;;;;5.07;4.50;;;;;;;;;;4918352;29;20051;-60
2022/11/20 00:53:45;;;;;;;5.85;4.45;;;;;;;;;;4918352;29;20056;-60
2022/11/20 00:56:12;;;;;;;7.40;4.45;;;;;;;;;;4933070;29;20469;-61
2022/11/20 00:58:40;;;;;;;6.38;4.97;;;;;;;;;;4917675;29;20071;-61
2022/11/20 01:01:10;;;;;;;5.82;4.95;;;;;;;;;;4918686;29;20040;-61
2022/11/20 01:03:38;;;;;;;6.75;5.03;;;;;;;;;;4918248;29;20052;-61
2022/11/20 01:06:06;;;;;;;8.30;5.35;;;;;;;;;;4918189;29;20036;-61
2022/11/20 01:08:34;;;;;;;7.68;5.13;;;;;;;;;;4917652;29;20045;-61
2022/11/20 01:11:01;;;;;;;7.32;4.65;;;;;;;;;;4917019;29;20405;-60
2022/11/20 01:13:37;;;;;;;6.38;4.93;;;;;;;;;;4917867;29;20062;-60
2022/11/20 01:16:07;;;;;;;6.78;5.25;;;;;;;;;;4917912;29;20454;-60
2022/11/20 01:18:34;;;;;;;6.32;5.15;;;;;;;;;;4917338;29;20047;-62
2022/11/20 01:21:05;;;;;;;7.57;5.88;;;;;;;;;;4916425;29;20076;-60
2022/11/20 01:23:35;;;;;;;8.90;5.78;;;;;;;;;;4917733;29;20051;-60
2022/11/20 01:26:03;;;;;;;8.50;5.72;;;;;;;;;;4917965;29;20032;-60
2022/11/20 01:28:30;;;;;;;7.47;5.90;;;;;;;;;;4917151;29;20043;-62
2022/11/20 01:30:57;;;;;;;8.70;6.57;;;;;;;;;;4917386;29;20048;-61
2022/11/20 01:33:23;;;;;;;10.30;6.50;;;;;;;;;;4917649;29;20050;-61
2022/11/20 01:35:50;;;;;;;6.60;5.53;;;;;;;;;;4917545;29;20044;-61
2022/11/20 01:38:17;;;;;;;7.60;5.60;;;;;;;;;;4917091;29;20083;-61
2022/11/20 01:40:43;;;;;;;8.77;5.32;;;;;;;;;;4932216;29;20048;-61
2022/11/20 01:43:22;;;;;;;8.32;5.47;;;;;;;;;;4917234;29;20041;-61
2022/11/20 01:45:54;;;;;;;8.68;6.30;;;;;;;;;;4916475;29;20099;-61
2022/11/20 01:48:22;;;;;;;8.20;5.43;;;;;;;;;;4917453;29;20044;-61
2022/11/20 01:50:49;;;;;;;6.63;5.03;;;;;;;;;;4918289;29;20449;-61
2022/11/20 01:53:17;;;;;;;8.90;5.97;;;;;;;;;;4917669;29;20088;-61
2022/11/20 01:55:54;;;;;;;6.75;5.07;;;;;;;;;;4917537;29;20055;-62
2022/11/20 01:58:24;;;;;;;8.40;5.60;;;;;;;;;;4917018;29;20051;-62
2022/11/20 02:00:50;;;;;;;8.63;5.00;;;;;;;;;;4917226;29;20047;-61
2022/11/20 02:03:18;;;;;;;7.10;5.55;;;;;;;;;;4917093;29;20040;-62
2022/11/20 02:06:03;;;;;;;6.85;5.40;;;;;;;;;;4917040;29;20437;-61
2022/11/20 02:08:30;;;;;;;7.88;5.75;;;;;;;;;;4916661;29;20048;-60
2022/11/20 02:10:57;;;;;;;7.40;5.35;;;;;;;;;;4917070;29;20123;-62
2022/11/20 02:16:14;;;;;;;7.22;5.00;;;;;;;;;;4916942;29;20055;-62
2022/11/20 02:18:42;;;;;;;10.25;6.50;;;;;;;;;;4916335;29;20063;-62
2022/11/20 02:21:19;;;;;;;11.23;5.90;;;;;;;;;;4916926;29;20054;-62
2022/11/20 02:24:00;;;;;;;7.53;5.60;;;;;;;;;;4916703;29;20489;-62
2022/11/20 02:26:27;;;;;;;8.02;5.65;;;;;;;;;;4915729;29;20044;-62
2022/11/20 02:28:54;;;;;;;9.07;6.03;;;;;;;;;;4916035;29;20044;-62
2022/11/20 02:31:20;;;;;;;6.60;5.10;;;;;;;;;;4915687;29;20498;-61
2022/11/20 02:33:47;;;;;;;10.25;5.90;;;;;;;;;;4916418;29;20048;-61
2022/11/20 02:36:15;;;;;;;6.25;5.13;;;;;;;;;;4916464;29;20460;-61
2022/11/20 02:38:41;;;;;;;6.93;5.38;;;;;;;;;;4915981;29;20044;-61
2022/11/20 02:41:08;;;;;;;7.80;6.38;;;;;;;;;;4916425;29;20052;-61
2022/11/20 02:43:34;;;;;;;9.38;6.05;;;;;;;;;;4916413;29;20044;-62
2022/11/20 02:46:01;;;;;;;9.07;6.28;;;;;;;;;;4918355;29;20048;-62
2022/11/20 02:48:27;;;;;;;9.73;6.78;;;;;;;;;;4931932;29;20062;-61
2022/11/20 02:50:59;;;;;;;9.30;6.20;;;;;;;;;;4918541;29;20048;-62
2022/11/20 02:53:25;;;;;;;9.50;6.20;;;;;;;;;;4918199;29;20568;-62
2022/11/20 02:55:52;;;;;;;9.75;6.47;;;;;;;;;;4919139;29;20048;-60
2022/11/20 02:58:18;;;;;;;8.57;6.43;;;;;;;;;;4918959;29;20489;-61
2022/11/20 03:00:45;;;;;;;10.68;6.90;;;;;;;;;;4919765;29;20047;-61
2022/11/20 03:03:11;;;;;;;10.10;7.10;;;;;;;;;;4919422;29;20044;-61
2022/11/20 03:05:37;;;;;;;11.82;7.28;;;;;;;;;;4933404;29;20051;-60
2022/11/20 03:08:04;;;;;;;9.35;7.15;;;;;;;;;;4901506;29;20044;-61
2022/11/20 03:10:30;;;;;;;11.25;7.85;;;;;;;;;;4918767;29;20054;-61
2022/11/20 03:12:57;;;;;;;12.77;8.30;;;;;;;;;;4916137;29;20052;-59
2022/11/20 03:15:23;;;;;;;11.43;7.68;;;;;;;;;;4916424;29;20052;-60
2022/11/20 03:17:53;;;;;;;12.75;7.88;;;;;;;;;;4915879;29;20521;-61
2022/11/20 03:20:19;;;;;;;11.60;7.72;;;;;;;;;;4917366;29;20068;-61
2022/11/20 03:22:46;;;;;;;12.75;7.80;;;;;;;;;;4917178;29;20494;-60
2022/11/20 03:25:12;;;;;;;8.50;6.80;;;;;;;;;;4930516;29;20446;-61
2022/11/20 03:27:39;;;;;;;8.27;6.68;;;;;;;;;;4929820;29;20413;-60
2022/11/20 03:30:05;;;;;;;9.00;6.05;;;;;;;;;;4915677;29;20096;-60
2022/11/20 03:32:32;;;;;;;8.07;6.13;;;;;;;;;;4916456;29;20428;-60
2022/11/20 03:34:59;;;;;;;8.85;6.60;;;;;;;;;;4914716;29;20048;-61
2022/11/20 03:37:25;;;;;;;9.07;6.50;;;;;;;;;;4915231;29;20054;-61
2022/11/20 03:39:51;;;;;;;8.38;6.15;;;;;;;;;;4915566;29;20569;-61
2022/11/20 03:45:03;;;;;;;9.52;7.22;;;;;;;;;;4917964;29;20515;-61
2022/11/20 03:47:30;;;;;;;9.23;6.85;;;;;;;;;;4917739;29;20059;-61
2022/11/20 03:49:56;;;;;;;9.13;6.65;;;;;;;;;;4919519;29;20461;-62
2022/11/20 03:52:22;;;;;;;9.07;7.30;;;;;;;;;;4919518;29;20107;-60
2022/11/20 03:54:49;;;;;;;7.78;6.15;;;;;;;;;;4919319;29;20539;-60
2022/11/20 03:57:15;;;;;;;9.00;7.00;;;;;;;;;;4919447;29;20490;-60
2022/11/20 03:59:42;;;;;;;9.25;7.15;;;;;;;;;;4919231;29;20048;-59
2022/11/20 04:02:08;;;;;;;9.93;7.00;;;;;;;;;;4919518;29;20493;-60
2022/11/20 04:04:35;;;;;;;7.88;6.30;;;;;;;;;;4919775;29;20047;-59
2022/11/20 04:07:01;;;;;;;9.77;7.40;;;;;;;;;;4919257;29;20041;-60
2022/11/20 04:09:28;;;;;;;9.75;7.40;;;;;;;;;;4918736;29;20044;-59
2022/11/20 04:11:54;;;;;;;9.60;7.25;;;;;;;;;;4919285;29;20044;-60
2022/11/20 04:14:21;;;;;;;8.70;7.15;;;;;;;;;;4918961;29;20044;-60
2022/11/20 04:16:47;;;;;;;9.95;7.63;;;;;;;;;;4919138;29;20056;-60
2022/11/20 04:19:14;;;;;;;8.95;6.97;;;;;;;;;;4918633;29;20709;-60
2022/11/20 04:21:42;;;;;;;10.75;7.38;;;;;;;;;;4919012;29;20047;-61
2022/11/20 04:24:10;;;;;;;10.27;7.05;;;;;;;;;;4919049;29;20043;-61
2022/11/20 04:26:36;;;;;;;10.77;7.72;;;;;;;;;;4919262;29;20111;-60
2022/11/20 04:29:03;;;;;;;9.75;7.57;;;;;;;;;;4918857;29;20063;-61
2022/11/20 04:31:31;;;;;;;9.63;7.47;;;;;;;;;;4919306;29;20040;-60
2022/11/20 04:34:01;;;;;;;11.48;8.10;;;;;;;;;;4919371;29;20056;-60
2022/11/20 04:36:29;;;;;;;12.82;9.27;;;;;;;;;;4919279;29;20048;-60
2022/11/20 04:38:57;;;;;;;10.90;7.75;;;;;;;;;;4918531;29;20051;-60
2022/11/20 04:41:25;;;;;;;9.38;7.70;;;;;;;;;;4918838;29;20050;-60
2022/11/20 04:43:59;;;;;;;9.13;7.57;;;;;;;;;;4918664;29;20040;-60
2022/11/20 04:46:27;;;;;;;10.90;7.78;;;;;;;;;;4918764;29;20052;-60
2022/11/20 04:48:53;;;;;;;12.80;8.63;;;;;;;;;;4918104;29;20139;-62
2022/11/20 04:51:20;;;;;;;10.32;7.88;;;;;;;;;;4918432;29;20063;-62
2022/11/20 04:53:46;;;;;;;11.90;8.35;;;;;;;;;;4918298;29;20087;-61
2022/11/20 04:56:13;;;;;;;10.70;8.55;;;;;;;;;;4917791;29;20051;-61
2022/11/20 04:58:40;;;;;;;11.65;8.15;;;;;;;;;;4917729;29;20044;-61
2022/11/20 05:01:12;;;;;;;10.77;8.45;;;;;;;;;;5322081;23;20052;31
2022/11/20 05:03:39;;;;;;;12.40;8.82;;;;;;;;;;4912943;29;20563;-63
2022/11/20 05:06:08;;;;;;;11.52;9.57;;;;;;;;;;4932947;29;20552;-64
2022/11/20 05:08:35;;;;;;;13.55;8.40;;;;;;;;;;4917582;29;20043;-63
2022/11/20 05:11:11;;;;;;;12.90;9.25;;;;;;;;;;4917111;29;20748;-64
2022/11/20 05:13:38;;;;;;;13.32;8.80;;;;;;;;;;4897983;29;20049;-63
2022/11/20 05:16:06;;;;;;;12.38;8.50;;;;;;;;;;4913547;29;20123;-64
2022/11/20 05:18:33;;;;;;;10.40;8.15;;;;;;;;;;4898568;29;20045;-64
2022/11/20 05:21:00;;;;;;;10.73;7.82;;;;;;;;;;4899061;29;20051;-63
2022/11/20 05:23:29;;;;;;;12.82;8.27;;;;;;;;;;4913171;29;20104;-64
2022/11/20 05:25:56;;;;;;;11.75;8.27;;;;;;;;;;4899459;29;20048;-63
2022/11/20 05:28:25;;;;;;;9.80;8.25;;;;;;;;;;4897619;29;20041;-63
2022/11/20 05:30:51;;;;;;;10.40;8.07;;;;;;;;;;4898916;29;20092;-64
2022/11/20 05:33:18;;;;;;;10.40;7.78;;;;;;;;;;4899011;29;20497;-64
2022/11/20 05:35:44;;;;;;;11.00;7.68;;;;;;;;;;4898870;29;20104;-64
2022/11/20 05:38:10;;;;;;;8.98;7.63;;;;;;;;;;4898572;29;20052;-63
2022/11/20 05:40:37;;;;;;;8.68;7.68;;;;;;;;;;4898975;29;20151;-63
2022/11/20 05:43:03;;;;;;;11.35;8.40;;;;;;;;;;4913403;29;20048;-62
2022/11/20 05:45:30;;;;;;;14.43;8.40;;;;;;;;;;4897762;29;20048;-63
2022/11/20 05:48:00;;;;;;;9.60;8.02;;;;;;;;;;4897329;29;20116;-63
2022/11/20 05:50:27;;;;;;;14.82;8.55;;;;;;;;;;4900139;29;20041;-62
2022/11/20 05:52:53;;;;;;;11.98;8.35;;;;;;;;;;4899735;29;20040;-63
2022/11/20 05:55:20;;;;;;;11.65;8.07;;;;;;;;;;4899263;29;20048;-63
2022/11/20 05:57:46;;;;;;;10.43;7.65;;;;;;;;;;4899276;29;20303;-63
2022/11/20 06:00:13;;;;;;;10.55;6.72;;;;;;;;;;4898596;29;20092;-63
2022/11/20 06:02:39;;;;;;;9.60;6.95;;;;;;;;;;4899083;29;20052;-63
2022/11/20 06:05:06;;;;;;;8.52;6.60;;;;;;;;;;4900140;29;20124;-63
2022/11/20 06:07:33;;;;;;;7.75;5.93;;;;;;;;;;4897999;29;20037;-64
2022/11/20 06:09:59;;;;;;;8.18;6.07;;;;;;;;;;4899452;29;20041;-64
2022/11/20 06:12:26;;;;;;;6.72;5.53;;;;;;;;;;4898154;29;20478;-64
2022/11/20 06:14:52;;;;;;;6.55;5.85;;;;;;;;;;4881738;29;20052;-63
2022/11/20 06:17:18;;;;;;;8.98;6.00;;;;;;;;;;4898105;29;20048;-64
2022/11/20 06:19:45;;;;;;;7.32;5.50;;;;;;;;;;4898455;29;20075;-64
2022/11/20 06:22:11;;;;;;;5.10;4.22;;;;;;;;;;4898114;29;20091;-64
2022/11/20 06:24:37;;;;;;;4.28;3.88;;;;;;;;;;4897945;29;20087;-64
2022/11/20 06:27:04;;;;;;;5.53;4.10;;;;;;;;;;4898160;29;20045;-65
2022/11/20 06:29:30;;;;;;;4.55;3.65;;;;;;;;;;4897166;29;20053;-64
2022/11/20 06:31:59;;;;;;;4.18;3.78;;;;;;;;;;4896968;29;20549;-64
2022/11/20 06:34:26;;;;;;;5.38;4.10;;;;;;;;;;4898227;29;20105;-64
2022/11/20 06:36:52;;;;;;;5.22;3.40;;;;;;;;;;4898259;29;20063;-64
2022/11/20 06:39:18;;;;;;;4.10;3.58;;;;;;;;;;4897327;29;20040;-64
2022/11/20 06:41:45;;;;;;;4.80;3.83;;;;;;;;;;4897915;29;20063;-64
2022/11/20 06:44:12;;;;;;;5.13;3.40;;;;;;;;;;4897640;29;20073;-63
2022/11/20 06:46:38;;;;;;;3.10;2.80;;;;;;;;;;4897733;29;20048;-64
2022/11/20 06:49:05;;;;;;;4.68;3.08;;;;;;;;;;4897077;29;20044;-64
2022/11/20 06:51:32;;;;;;;3.35;2.90;;;;;;;;;;4896043;29;20096;-64
2022/11/20 06:53:58;;;;;;;3.05;2.47;;;;;;;;;;4898203;29;20048;-64
2022/11/20 06:56:24;;;;;;;3.30;2.22;;;;;;;;;;4897549;29;20045;-64
2022/11/20 06:58:51;;;;;;;2.70;2.50;;;;;;;;;;4895693;29;20053;-64
2022/11/20 07:01:17;;;;;;;2.78;2.40;;;;;;;;;;4897371;29;20093;-64
2022/11/20 07:03:44;;;;;;;3.03;2.70;;;;;;;;;;4897264;29;20048;-64
2022/11/20 07:06:16;;;;;;;3.22;2.30;;;;;;;;;;4896174;29;20040;-64
2022/11/20 07:08:43;;;;;;;4.28;2.95;;;;;;;;;;4896686;29;20096;-64
2022/11/20 07:11:11;;;;;;;5.10;3.08;;;;;;;;;;4897434;29;20454;-64
2022/11/20 07:13:38;;;;;;;4.13;3.10;;;;;;;;;;4897145;29;20072;-64
2022/11/20 07:16:05;;;;;;;5.82;4.13;;;;;;;;;;4897229;29;20052;-64
2022/11/20 07:18:32;;;;;;;5.60;3.72;;;;;;;;;;4897107;29;20100;-64
2022/11/20 07:21:02;;;;;;;4.38;3.90;;;;;;;;;;4911729;29;20052;-63
2022/11/20 07:23:28;;;;;;;4.05;3.55;;;;;;;;;;4897534;29;20051;-63
2022/11/20 07:25:55;;;;;;;4.10;3.60;;;;;;;;;;4897316;29;20073;-63
2022/11/20 07:28:21;;;;;;;4.57;3.83;;;;;;;;;;4895396;29;20049;-63
2022/11/20 07:30:51;;;;;;;5.40;3.30;;;;;;;;;;4897233;29;20049;-64
2022/11/20 07:33:18;;;;;;;4.50;3.55;;;;;;;;;;4897358;29;20562;-63
2022/11/20 07:35:44;;;;;;;5.88;4.82;;;;;;;;;;4897040;29;20052;-64
2022/11/20 07:38:11;;;;;;;4.68;4.00;;;;;;;;;;4896497;29;20097;-63
2022/11/20 07:40:37;;;;;;;4.07;3.63;;;;;;;;;;4897015;29;20457;-64
2022/11/20 07:43:04;;;;;;;6.13;4.40;;;;;;;;;;4896981;29;20040;-64
2022/11/20 07:45:30;;;;;;;5.35;4.72;;;;;;;;;;4896990;29;20116;-64
2022/11/20 07:47:56;;;;;;;5.00;4.50;;;;;;;;;;4896500;29;20044;-64
2022/11/20 07:50:23;;;;;;;6.05;4.63;;;;;;;;;;4897171;29;20044;-65
2022/11/20 07:52:52;;;;;;;6.30;5.05;;;;;;;;;;4895692;29;20422;-65
2022/11/20 07:55:18;;;;;;;6.35;5.20;;;;;;;;;;4895737;29;20049;-65
2022/11/20 07:57:44;;;;;;;7.63;5.63;;;;;;;;;;4896209;29;20052;-64
2022/11/20 08:00:11;;;;;;;7.90;4.90;;;;;;;;;;4896654;29;20498;-63
2022/11/20 08:02:39;;;;;;;5.82;5.22;;;;;;;;;;4896595;29;20052;-63
2022/11/20 08:05:06;;;;;;;8.55;5.57;;;;;;;;;;4896765;29;20059;-63
2022/11/20 08:07:36;;;;;;;7.15;5.80;;;;;;;;;;4896432;29;20444;-64
2022/11/20 08:10:03;;;;;;;6.72;5.50;;;;;;;;;;4911448;29;20136;-64
2022/11/20 08:15:14;;;;;;;9.90;7.57;;;;;;;;;;4896640;29;20104;-63
2022/11/20 08:17:41;;;;;;;7.95;6.75;;;;;;;;;;4896029;29;20501;-62
2022/11/20 08:20:07;;;;;;;10.07;8.07;;;;;;;;;;4896809;29;20052;-64
2022/11/20 08:22:34;;;;;;;10.45;8.00;;;;;;;;;;4896607;29;20044;-63
2022/11/20 08:25:00;;;;;;;9.05;7.85;;;;;;;;;;4896691;29;20536;-62
2022/11/20 08:27:27;;;;;;;10.77;7.50;;;;;;;;;;4895978;29;20044;-62
2022/11/20 08:29:53;;;;;;;9.57;7.88;;;;;;;;;;4896799;29;20041;-64
2022/11/20 08:32:20;;;;;;;11.23;7.40;;;;;;;;;;4899170;29;20092;-64
2022/11/20 08:34:46;;;;;;;9.75;7.53;;;;;;;;;;4899930;29;20044;-65
2022/11/20 08:37:12;;;;;;;7.10;6.10;;;;;;;;;;4898759;29;20104;-64
2022/11/20 08:39:39;;;;;;;9.00;6.80;;;;;;;;;;4899586;29;20124;-64
2022/11/20 08:42:08;;;;;;;8.57;6.57;;;;;;;;;;4900116;29;20045;-63
2022/11/20 08:44:35;;;;;;;8.70;6.85;;;;;;;;;;4900042;29;20449;-63
2022/11/20 08:47:01;;;;;;;9.18;6.63;;;;;;;;;;4898664;29;20045;-63
2022/11/20 08:49:27;;;;;;;7.53;6.70;;;;;;;;;;4898096;29;20493;-63
2022/11/20 08:51:55;;;;;;;7.25;6.15;;;;;;;;;;4898456;29;20049;-63
2022/11/20 08:54:22;;;;;;;9.88;6.82;;;;;;;;;;4898538;29;20072;-62
2022/11/20 08:56:48;;;;;;;12.35;8.05;;;;;;;;;;4899996;29;20053;-64
2022/11/20 08:59:15;;;;;;;9.98;7.75;;;;;;;;;;4899073;29;20577;-63
2022/11/20 09:02:01;;;;;;;8.23;6.60;;;;;;;;;;4898535;29;20453;-63
2022/11/20 09:04:28;;;;;;;7.95;5.78;;;;;;;;;;4898326;29;20040;-65
2022/11/20 09:06:54;;;;;;;10.32;6.40;;;;;;;;;;4899506;29;20045;-63
2022/11/20 09:09:21;;;;;;;7.10;5.50;;;;;;;;;;4913191;29;20082;-63
2022/11/20 09:11:49;;;;;;;10.30;5.68;;;;;;;;;;4899389;29;20044;-63
2022/11/20 09:14:16;;;;;;;9.70;7.75;;;;;;;;;;4913939;29;20100;-63
2022/11/20 09:16:44;;;;;;;7.15;6.43;;;;;;;;;;4899564;29;20493;-64
2022/11/20 09:19:10;;;;;;;7.30;5.63;;;;;;;;;;4898672;29;20048;-63
2022/11/20 09:21:57;;;;;;;6.97;6.28;;;;;;;;;;4899018;29;20509;-64
2022/11/20 09:24:25;;;;;;;5.55;5.00;;;;;;;;;;4898969;29;20076;-64
2022/11/20 09:26:52;;;;;;;6.65;5.57;;;;;;;;;;4899163;29;20497;-64
2022/11/20 09:29:18;;;;;;;8.15;6.03;;;;;;;;;;4897440;29;20095;-64
2022/11/20 09:31:45;;;;;;;7.32;5.88;;;;;;;;;;4913346;29;20053;-64
2022/11/20 09:34:11;;;;;;;7.38;4.70;;;;;;;;;;4898802;29;20108;-64
2022/11/20 09:36:38;;;;;;;6.53;5.40;;;;;;;;;;4898892;29;20103;-64
2022/11/20 09:39:04;;;;;;;7.28;5.65;;;;;;;;;;4898178;29;20113;-63
2022/11/20 09:41:30;;;;;;;6.68;5.63;;;;;;;;;;4898726;29;20056;-64
2022/11/20 09:44:06;;;;;;;8.18;5.70;;;;;;;;;;4912936;29;20505;-64
2022/11/20 09:46:42;;;;;;;7.65;5.13;;;;;;;;;;4898633;29;20049;-63
2022/11/20 09:49:17;;;;;;;6.88;4.35;;;;;;;;;;4898050;29;20096;-64
2022/11/20 09:51:44;;;;;;;8.30;5.50;;;;;;;;;;4898541;29;20047;-63
2022/11/20 09:54:11;;;;;;;4.57;4.07;;;;;;;;;;4898459;29;20056;-63
2022/11/20 09:56:39;;;;;;;5.40;4.00;;;;;;;;;;4897568;29;20044;-64
2022/11/20 09:59:07;;;;;;;7.35;4.15;;;;;;;;;;4897881;29;20081;-64
2022/11/20 10:01:38;;;;;;;6.95;4.80;;;;;;;;;;4912684;29;20052;-64
2022/11/20 10:04:15;;;;;;;13.27;6.95;;;;;;;;;;4898371;29;20055;-64
2022/11/20 10:07:04;;;;;;;19.75;8.52;;;;;;;;;;4898448;29;20052;-64
2022/11/20 10:09:53;;;;;;;7.47;4.70;;;;;;;;;;4898167;29;20478;-63
2022/11/20 10:12:45;;;;;;;9.30;5.45;;;;;;;;;;4912722;29;20040;-64
2022/11/20 10:15:12;;;;;;;5.95;3.78;;;;;;;;;;4898410;29;20052;-63
2022/11/20 10:17:57;;;;;;;11.82;4.85;;;;;;;;;;4897506;29;20060;-63
2022/11/20 10:20:26;;;;;;;4.97;2.45;;;;;;;;;;4912538;29;20044;-64
2022/11/20 10:22:56;;;;;;;3.85;2.85;;;;;;;;;;4896779;29;20045;-64
2022/11/20 10:25:26;;;;;;;3.88;2.50;;;;;;;;;;4897836;29;20486;-64
2022/11/20 10:28:02;;;;;;;4.45;2.40;;;;;;;;;;4897469;29;20044;-64
2022/11/20 10:30:30;;;;;;;5.97;2.40;;;;;;;;;;4897850;29;20044;-64
2022/11/20 10:33:11;;;;;;;3.10;2.30;;;;;;;;;;4898150;29;20108;-64
2022/11/20 10:35:44;;;;;;;3.70;2.90;;;;;;;;;;4896570;29;20040;-65
2022/11/20 10:38:20;;;;;;;6.40;3.60;;;;;;;;;;4897435;29;20052;-64
2022/11/20 10:41:24;;;;;;;10.68;4.53;;;;;;;;;;4897668;29;20127;-64
2022/11/20 10:43:41;;;;;;;7.22;5.15;;;;;;;;;;4897686;29;20116;-64
2022/11/20 10:46:18;;;;;;;4.53;3.72;;;;;;;;;;4912036;29;20071;-64
2022/11/20 10:48:45;;;;;;;6.68;3.40;;;;;;;;;;4897129;29;20100;-64
2022/11/20 10:51:15;;;;;;;4.65;3.30;;;;;;;;;;4912112;29;20728;-63
2022/11/20 10:53:57;;;;;;;5.45;3.90;;;;;;;;;;4897010;29;20466;-63
2022/11/20 10:56:42;;;;;;;8.70;4.53;;;;;;;;;;4897668;29;20109;-63
2022/11/20 10:59:21;;;;;;;5.85;2.95;;;;;;;;;;4895608;29;20045;-63
2022/11/20 11:01:48;;;;;;;5.60;2.72;;;;;;;;;;4897299;29;20131;-63
2022/11/20 11:04:29;;;;;;;5.68;2.65;;;;;;;;;;4897323;29;20048;-63
2022/11/20 11:07:00;;;;;;;7.22;2.42;;;;;;;;;;4896105;29;20561;-64
2022/11/20 11:09:33;;;;;;;5.13;2.55;;;;;;;;;;4895527;29;20037;-64
2022/11/20 11:11:59;;;;;;;6.05;2.78;;;;;;;;;;4911963;29;20040;-65
2022/11/20 11:14:41;;;;;;;5.40;3.30;;;;;;;;;;4911573;29;20056;-63
2022/11/20 11:17:17;;;;;;;3.13;2.45;;;;;;;;;;4897810;29;20068;-65
2022/11/20 11:19:44;;;;;;;6.07;2.88;;;;;;;;;;4897646;29;20055;-64
2022/11/20 11:22:17;;;;;;;7.35;3.33;;;;;;;;;;4896911;29;20048;-65
2022/11/20 11:24:53;;;;;;;6.25;2.55;;;;;;;;;;4911868;29;20048;-64
2022/11/20 11:27:20;;;;;;;5.15;2.70;;;;;;;;;;4896754;29;20048;-64
2022/11/20 11:29:46;;;;;;;5.10;2.50;;;;;;;;;;4896727;29;20044;-64
2022/11/20 11:32:20;;;;;;;7.60;2.80;;;;;;;;;;4896009;29;20505;-64
2022/11/20 11:34:47;;;;;;;;;;;;;;;;;;4896157;29;20048;-64
2022/11/20 11:37:22;;;;;;;8.55;2.60;;;;;;;;;;4897075;29;20337;-65
2022/11/20 11:39:49;;;;;;;4.72;2.15;;;;;;;;;;4897084;29;20068;-64
2022/11/20 11:42:40;;;;;;;3.75;2.10;;;;;;;;;;4911678;29;20083;-64
2022/11/20 11:45:07;;;;;;;5.55;2.47;;;;;;;;;;4896792;29;20120;-65
2022/11/20 11:47:43;;;;;;;5.05;2.40;;;;;;;;;;4896360;29;20502;-64
2022/11/20 11:50:15;;;;;;;4.82;2.15;;;;;;;;;;4895740;29;20056;-64
2022/11/20 11:52:41;;;;;;;4.40;2.80;;;;;;;;;;4896946;29;20051;-64
2022/11/20 11:55:12;;;;;;;7.88;2.20;;;;;;;;;;4896926;29;20045;-65
2022/11/20 11:58:01;;;;;;;8.15;3.05;;;;;;;;;;4910864;29;20130;-64
2022/11/20 12:00:28;;;;;;;5.32;2.20;;;;;;;;;;4896793;29;20458;-65
2022/11/20 12:03:06;;;;;;;4.57;2.58;;;;;;;;;;4911079;29;20044;-64
2022/11/20 12:05:42;;;;;;;5.97;3.33;;;;;;;;;;4896770;29;20489;-64
2022/11/20 12:08:18;;;;;;;8.77;3.28;;;;;;;;;;4899999;29;20405;-65
2022/11/20 12:11:02;;;;;;;9.18;3.08;;;;;;;;;;4900866;29;20096;-65
2022/11/20 12:13:34;;;;;;;7.88;2.83;;;;;;;;;;4900531;29;20091;-64
2022/11/20 12:16:01;;;;;;;5.88;2.83;;;;;;;;;;4900711;29;20096;-65
2022/11/20 12:18:28;;;;;;;9.13;2.70;;;;;;;;;;4898782;29;20045;-65
2022/11/20 12:20:54;;;;;;;7.28;2.55;;;;;;;;;;4900453;29;20502;-65
2022/11/20 12:23:50;;;;;;;9.20;4.03;;;;;;;;;;4900318;29;20089;-65
2022/11/20 12:26:31;;;;;;;8.00;2.90;;;;;;;;;;4895436;29;20069;-65
2022/11/20 12:29:17;;;;;;;6.65;3.35;;;;;;;;;;4898410;29;20056;-65
2022/11/20 12:31:44;;;;;;;8.35;4.80;;;;;;;;;;4900109;29;20105;-65
2022/11/20 12:34:13;;;;;;;11.48;7.13;;;;;;;;;;4915018;29;20064;-64
2022/11/20 12:36:56;;;;;;;12.25;6.85;;;;;;;;;;4914844;29;20568;-65
2022/11/20 12:39:35;;;;;;;8.25;4.97;;;;;;;;;;4899279;29;20489;-64
2022/11/20 12:45:29;;;;;;;8.55;3.50;;;;;;;;;;4899801;29;20135;-64
2022/11/20 12:48:02;;;;;;;6.63;3.05;;;;;;;;;;4878151;29;20045;-64
2022/11/20 12:50:37;;;;;;;8.25;3.72;;;;;;;;;;4893122;29;20065;-65
2022/11/20 12:53:29;;;;;;;9.80;3.15;;;;;;;;;;4899687;29;20076;-66
2022/11/20 12:56:11;;;;;;;5.75;2.30;;;;;;;;;;4914388;29;20056;-64
2022/11/20 12:58:40;;;;;;;6.55;3.15;;;;;;;;;;4900611;29;20498;-65
2022/11/20 13:01:07;;;;;;;5.60;2.90;;;;;;;;;;4901510;29;20100;-64
2022/11/20 13:03:39;;;;;;;8.13;2.83;;;;;;;;;;4899179;29;20151;-65
2022/11/20 13:06:08;;;;;;;5.93;2.92;;;;;;;;;;4899852;29;20096;-66
2022/11/20 13:08:36;;;;;;;5.90;2.67;;;;;;;;;;4900105;29;20049;-64
2022/11/20 13:11:05;;;;;;;5.07;2.35;;;;;;;;;;4901050;29;20088;-63
2022/11/20 13:13:51;;;;;;;6.88;2.53;;;;;;;;;;4900539;29;20096;-64
2022/11/20 13:16:24;;;;;;;5.93;2.42;;;;;;;;;;4915232;29;20052;-64
2022/11/20 13:18:50;;;;;;;3.95;2.20;;;;;;;;;;4899921;29;20071;-63
2022/11/20 13:21:18;;;;;;;9.00;2.85;;;;;;;;;;4899777;29;20048;-65
2022/11/20 13:23:45;;;;;;;2.83;1.88;;;;;;;;;;4900886;29;20052;-64
2022/11/20 13:26:14;;;;;;;7.32;2.75;;;;;;;;;;4899196;29;20494;-64
2022/11/20 13:28:41;;;;;;;3.92;1.88;;;;;;;;;;4898544;29;20040;-65
2022/11/20 13:31:25;;;;;;;11.68;2.20;;;;;;;;;;4899077;29;20048;-64
2022/11/20 13:33:53;;;;;;;5.40;2.25;;;;;;;;;;4897924;29;20048;-65
2022/11/20 13:36:23;;;;;;;4.00;1.83;;;;;;;;;;4897999;29;20052;-64
2022/11/20 13:38:51;;;;;;;5.30;1.58;;;;;;;;;;4913234;29;20045;-64
2022/11/20 13:41:27;;;;;;;4.70;1.40;;;;;;;;;;4899013;29;20059;-64
2022/11/20 13:43:56;;;;;;;4.47;1.65;;;;;;;;;;4898811;29;20052;-64
2022/11/20 13:46:24;;;;;;;3.30;1.67;;;;;;;;;;4897489;29;20051;-64
2022/11/20 13:48:53;;;;;;;2.95;1.73;;;;;;;;;;4898096;29;20037;-64
2022/11/20 13:51:38;;;;;;;2.70;1.83;;;;;;;;;;4897766;29;20074;-64
2022/11/20 13:54:12;;;;;;;4.95;1.55;;;;;;;;;;4897673;29;20413;-64
2022/11/20 13:56:58;;;;;;;2.65;1.58;;;;;;;;;;4897572;29;20474;-64
2022/11/20 13:59:37;;;;;;;5.88;2.05;;;;;;;;;;4896803;29;20049;-64
2022/11/20 14:02:09;;;;;;;3.33;1.50;;;;;;;;;;4898325;29;20056;-64
2022/11/20 14:04:37;;;;;;;4.93;1.98;;;;;;;;;;4897106;29;20056;-64
2022/11/20 14:07:05;;;;;;;3.05;1.35;;;;;;;;;;4898226;29;20120;-64
2022/11/20 14:09:33;;;;;;;5.63;1.95;;;;;;;;;;4898071;29;20037;-65
2022/11/20 14:11:59;;;;;;;4.90;2.30;;;;;;;;;;4898306;29;20045;-65
2022/11/20 14:14:27;;;;;;;6.88;4.22;;;;;;;;;;4898130;29;20097;-65
2022/11/20 14:17:05;;;;;;;5.72;3.13;;;;;;;;;;4898337;29;20120;-65
2022/11/20 14:19:31;;;;;;;6.68;3.72;;;;;;;;;;4897613;29;20053;-65
2022/11/20 14:22:09;;;;;;;3.40;2.08;;;;;;;;;;4898247;29;20044;-65
2022/11/20 14:24:35;;;;;;;5.55;2.72;;;;;;;;;;4897392;29;20100;-65
2022/11/20 14:27:01;;;;;;;4.05;2.20;;;;;;;;;;4898585;29;20104;-64
2022/11/20 14:29:35;;;;;;;4.43;1.90;;;;;;;;;;4897018;29;20100;-66
2022/11/20 14:32:02;;;;;;;7.05;2.60;;;;;;;;;;4912201;29;20048;-65
2022/11/20 14:34:30;;;;;;;6.55;3.05;;;;;;;;;;4897942;29;20048;-66
2022/11/20 14:36:58;;;;;;;4.45;1.92;;;;;;;;;;4897963;29;20446;-66
2022/11/20 14:39:40;;;;;;;4.65;2.20;;;;;;;;;;4911610;29;20096;-65
2022/11/20 14:42:17;;;;;;;5.50;1.90;;;;;;;;;;4896503;29;20100;-66
2022/11/20 14:44:44;;;;;;;6.18;2.45;;;;;;;;;;4912058;29;20532;-66
2022/11/20 14:47:12;;;;;;;8.85;2.40;;;;;;;;;;4897650;29;20047;-65
2022/11/20 14:49:39;;;;;;;4.43;2.20;;;;;;;;;;4911541;29;20049;-65
2022/11/20 14:52:16;;;;;;;3.55;1.90;;;;;;;;;;4897377;29;20052;-66
2022/11/20 14:54:52;;;;;;;3.90;1.60;;;;;;;;;;4897528;29;20040;-65
2022/11/20 14:57:32;;;;;;;3.88;1.50;;;;;;;;;;4911373;29;20056;-65
2022/11/20 15:00:11;;;;;;;2.63;1.75;;;;;;;;;;4911980;29;20076;-64
2022/11/20 15:02:48;;;;;;;4.03;1.40;;;;;;;;;;4896224;29;20048;-64
2022/11/20 15:05:15;;;;;;;2.92;1.75;;;;;;;;;;4898448;29;20056;-65
2022/11/20 15:07:45;;;;;;;3.38;2.00;;;;;;;;;;4880874;29;20049;-64